Terminal Aerodrome Forecast
Issued by NWS

Current Version | Previous Version | Text Only | Print | Product List | Glossary On
Versions: 1 2 3 4 5 6 7 8 9 10 11 12 13 14 15 16 17 18 19 20
313
FTUS46 KSTO 200540
TAFMHR
TAF
KMHR 200540Z 2006/2106 15010KT P6SM -SHRA OVC100
     FM201000 13020G30KT P6SM -RA SCT020 OVC035
     FM201900 17015G21KT 4SM -RA BR OVC025
     FM210000 20012KT 6SM SHRA BR BKN035=

USA.gov is the U.S. government's official web portal to all federal, state and local government web resources and services.